Time;durP1;ratioP1;P1;durP2;ratioP2;P2;SDS_P1;SDS_P2;PMS_P1;PMS_P2;Temp;Humidity;BMP_temperature;BMP_pressure;BME280_temperature;BME280_humidity;BME280_pressure;Samples;Min_cycle;Max_cycle;Signal;HPM_P1;HPM_P2
2023/12/17 00:00:26;;;;;;;16.77;6.70;;;8.00;99.90;;;;;;5032584;28;20028;-54
2023/12/17 00:02:51;;;;;;;16.13;7.10;;;8.00;99.90;;;;;;5032743;28;20064;-52
2023/12/17 00:05:17;;;;;;;18.37;6.73;;;8.00;99.90;;;;;;5032664;28;20037;-54
2023/12/17 00:07:42;;;;;;;18.00;7.10;;;8.00;99.90;;;;;;5032436;28;20490;-55
2023/12/17 00:10:08;;;;;;;16.03;6.43;;;8.00;99.90;;;;;;5014902;28;20030;-55
2023/12/17 00:12:34;;;;;;;18.63;7.87;;;8.00;99.90;;;;;;5032415;28;20490;-55
2023/12/17 00:15:00;;;;;;;17.87;6.90;;;8.00;99.90;;;;;;5032389;28;20049;-53
2023/12/17 00:17:25;;;;;;;15.77;7.07;;;8.00;99.90;;;;;;5032390;28;20615;-55
2023/12/17 00:19:51;;;;;;;18.60;7.27;;;8.00;99.90;;;;;;5032342;28;20037;-55
2023/12/17 00:22:16;;;;;;;17.97;8.20;;;8.00;99.90;;;;;;5032319;28;20040;-54
2023/12/17 00:24:42;;;;;;;15.47;6.90;;;8.00;99.90;;;;;;5032267;28;20025;-55
2023/12/17 00:27:09;;;;;;;17.47;7.60;;;8.00;99.90;;;;;;5032179;28;20049;-55
2023/12/17 00:29:34;;;;;;;17.70;7.90;;;8.00;99.90;;;;;;5032094;28;20048;-55
2023/12/17 00:32:00;;;;;;;19.37;6.87;;;8.00;99.90;;;;;;5014534;28;20041;-54
2023/12/17 00:34:26;;;;;;;16.63;6.67;;;8.00;99.90;;;;;;5014604;28;20084;-55
2023/12/17 00:36:51;;;;;;;15.93;6.43;;;8.00;99.90;;;;;;5031940;28;20120;-53
2023/12/17 00:39:17;;;;;;;15.07;6.17;;;8.00;99.90;;;;;;5032095;28;20021;-55
2023/12/17 00:41:42;;;;;;;14.57;6.83;;;8.00;99.90;;;;;;5031983;28;20124;-53
2023/12/17 00:44:08;;;;;;;13.20;6.70;;;7.90;99.90;;;;;;5031913;28;20029;-55
2023/12/17 00:46:33;;;;;;;15.20;6.10;;;7.90;99.90;;;;;;5031970;28;20144;-53
2023/12/17 00:48:59;;;;;;;20.57;7.67;;;7.90;99.90;;;;;;5031883;28;20037;-53
2023/12/17 00:51:24;;;;;;;19.07;7.27;;;7.90;99.90;;;;;;5014274;28;20033;-53
2023/12/17 00:53:50;;;;;;;18.23;7.07;;;7.90;99.90;;;;;;5014469;28;20061;-55
2023/12/17 00:56:16;;;;;;;13.87;6.37;;;7.90;99.90;;;;;;5031763;28;20037;-53
2023/12/17 00:58:41;;;;;;;19.23;7.30;;;7.90;99.90;;;;;;5031696;28;20029;-54
2023/12/17 01:01:07;;;;;;;11.63;6.93;;;7.90;99.90;;;;;;5031769;28;20071;-54
2023/12/17 01:03:32;;;;;;;19.77;6.80;;;7.90;99.90;;;;;;5031910;28;20453;-53
2023/12/17 01:05:58;;;;;;;16.57;6.83;;;8.00;99.90;;;;;;5031832;28;20033;-53
2023/12/17 01:08:24;;;;;;;14.30;6.20;;;8.00;99.90;;;;;;5034519;28;20171;-56
2023/12/17 01:10:49;;;;;;;15.47;6.97;;;8.00;99.90;;;;;;5035862;28;20393;-55
2023/12/17 01:13:15;;;;;;;16.57;6.57;;;8.00;99.90;;;;;;5035834;28;20333;-52
2023/12/17 01:15:40;;;;;;;17.63;7.27;;;7.90;99.90;;;;;;5035757;28;20402;-54
2023/12/17 01:18:06;;;;;;;15.43;7.20;;;7.90;99.90;;;;;;5035538;28;20179;-53
2023/12/17 01:20:31;;;;;;;16.53;7.37;;;7.90;99.90;;;;;;5035583;28;20029;-51
2023/12/17 01:22:57;;;;;;;17.23;7.33;;;7.90;99.90;;;;;;5035726;28;20025;-54
2023/12/17 01:25:22;;;;;;;21.03;7.73;;;7.90;99.90;;;;;;5035561;28;20034;-55
2023/12/17 01:27:48;;;;;;;15.63;7.17;;;7.90;99.90;;;;;;5035132;28;20055;-54
2023/12/17 01:30:14;;;;;;;17.70;6.93;;;7.90;99.90;;;;;;5035425;28;20079;-53
2023/12/17 01:32:39;;;;;;;17.83;7.63;;;7.80;99.90;;;;;;5035408;28;20104;-53
2023/12/17 01:35:07;;;;;;;15.47;7.27;;;7.90;99.90;;;;;;5035382;28;20053;-51
2023/12/17 01:37:33;;;;;;;21.00;7.87;;;7.80;99.90;;;;;;5035201;28;20034;-54
2023/12/17 01:39:58;;;;;;;18.63;7.10;;;7.80;99.90;;;;;;5035227;28;20071;-54
2023/12/17 01:42:24;;;;;;;15.63;7.73;;;7.90;99.90;;;;;;5035168;28;20032;-52
2023/12/17 01:44:50;;;;;;;18.23;7.47;;;7.90;99.90;;;;;;5035393;28;20048;-51
2023/12/17 01:47:15;;;;;;;18.23;8.03;;;7.90;99.90;;;;;;5035124;28;20029;-55
2023/12/17 01:49:41;;;;;;;18.70;8.13;;;7.80;99.90;;;;;;5035248;28;20079;-55
2023/12/17 01:52:07;;;;;;;17.00;7.50;;;7.90;99.90;;;;;;5035330;28;20375;-56
2023/12/17 01:54:34;;;;;;;19.73;8.10;;;8.00;99.90;;;;;;5035208;28;20371;-56
2023/12/17 01:57:00;;;;;;;16.67;7.37;;;8.00;99.90;;;;;;5034769;28;20041;-55
2023/12/17 01:59:26;;;;;;;21.30;8.53;;;7.90;99.90;;;;;;5034862;28;20029;-55
2023/12/17 02:01:53;;;;;;;19.13;8.10;;;7.90;99.90;;;;;;5034948;28;20489;-55
2023/12/17 02:04:22;;;;;;;19.27;7.83;;;7.90;99.90;;;;;;5035193;28;20425;-55
2023/12/17 02:06:47;;;;;;;21.05;7.70;;;7.90;99.90;;;;;;5034823;28;20037;-55
2023/12/17 02:09:13;;;;;;;19.67;8.07;;;7.90;99.90;;;;;;5034681;28;20033;-55
2023/12/17 02:11:39;;;;;;;14.63;6.90;;;7.90;99.90;;;;;;5034705;28;20126;-54
2023/12/17 02:14:04;;;;;;;17.37;7.40;;;7.90;99.90;;;;;;5034773;28;20029;-55
2023/12/17 02:16:30;;;;;;;18.40;7.20;;;7.90;99.90;;;;;;5034529;28;20465;-55
2023/12/17 02:18:58;;;;;;;14.30;7.37;;;7.80;99.90;;;;;;5034126;28;20036;-54
2023/12/17 02:21:24;;;;;;;20.90;7.82;;;7.90;99.90;;;;;;5034557;28;20092;-55
2023/12/17 02:23:50;;;;;;;20.37;6.70;;;7.80;99.90;;;;;;5034563;28;20029;-55
2023/12/17 02:26:17;;;;;;;20.17;7.43;;;7.80;99.90;;;;;;5034287;28;20132;-55
2023/12/17 02:28:43;;;;;;;16.93;7.40;;;7.80;99.90;;;;;;5034418;28;20124;-53
2023/12/17 02:31:08;;;;;;;19.07;7.93;;;7.80;99.90;;;;;;5034376;28;20133;-54
2023/12/17 02:33:34;;;;;;;20.30;8.30;;;7.80;99.90;;;;;;5034460;28;20037;-55
2023/12/17 02:36:00;;;;;;;20.03;7.53;;;7.80;99.90;;;;;;5034367;28;20079;-53
2023/12/17 02:38:25;;;;;;;19.60;7.33;;;7.80;99.90;;;;;;5034044;28;20076;-55
2023/12/17 02:40:51;;;;;;;19.03;7.83;;;7.80;99.90;;;;;;5033965;28;20037;-53
2023/12/17 02:43:16;;;;;;;20.93;8.77;;;7.70;99.90;;;;;;5034167;28;20036;-53
2023/12/17 02:45:42;;;;;;;19.50;7.57;;;7.70;99.90;;;;;;5034157;28;20363;-53
2023/12/17 02:48:07;;;;;;;18.53;7.73;;;7.70;99.90;;;;;;5034029;28;20018;-53
2023/12/17 02:50:33;;;;;;;18.17;7.13;;;7.70;99.90;;;;;;5033967;28;20545;-55
2023/12/17 02:52:59;;;;;;;19.07;8.23;;;7.70;99.90;;;;;;5034044;28;20034;-54
2023/12/17 02:55:24;;;;;;;17.53;7.10;;;7.70;99.90;;;;;;5016202;28;20037;-55
2023/12/17 02:57:50;;;;;;;17.27;7.33;;;7.60;99.90;;;;;;5033791;28;20029;-54
2023/12/17 03:00:15;;;;;;;16.87;7.57;;;7.70;99.90;;;;;;5033808;28;20036;-55
2023/12/17 03:02:41;;;;;;;15.33;7.07;;;7.70;99.90;;;;;;5033772;28;20095;-56
2023/12/17 03:05:07;;;;;;;18.53;7.63;;;7.60;99.90;;;;;;5033834;28;20038;-55
2023/12/17 03:07:32;;;;;;;22.73;8.37;;;7.60;99.90;;;;;;5033585;28;20025;-55
2023/12/17 03:09:58;;;;;;;18.10;7.17;;;7.70;99.90;;;;;;5033590;28;20421;-54
2023/12/17 03:12:23;;;;;;;16.90;7.73;;;7.70;99.90;;;;;;5033511;28;20021;-56
2023/12/17 03:14:49;;;;;;;16.37;7.20;;;7.70;99.90;;;;;;5033877;28;20486;-55
2023/12/17 03:17:15;;;;;;;18.30;7.60;;;7.70;99.90;;;;;;5033387;28;20025;-53
2023/12/17 03:19:41;;;;;;;21.97;8.17;;;7.70;99.90;;;;;;5033507;28;20317;-54
2023/12/17 03:22:06;;;;;;;20.23;7.70;;;7.70;99.90;;;;;;5033476;28;20435;-56
2023/12/17 03:24:32;;;;;;;17.97;7.23;;;7.70;99.90;;;;;;5033278;28;20390;-55
2023/12/17 03:26:57;;;;;;;17.57;7.43;;;7.70;99.90;;;;;;5033262;28;20025;-55
2023/12/17 03:29:23;;;;;;;19.10;7.13;;;7.70;99.90;;;;;;5032759;28;20474;-52
2023/12/17 03:31:48;;;;;;;18.10;7.70;;;7.70;99.90;;;;;;5032790;28;20116;-55
2023/12/17 03:34:14;;;;;;;18.17;7.73;;;7.70;99.90;;;;;;5033233;28;20033;-52
2023/12/17 03:36:40;;;;;;;19.10;7.27;;;7.70;99.90;;;;;;5032981;28;20033;-54
2023/12/17 03:39:06;;;;;;;20.13;7.50;;;7.70;99.90;;;;;;5033050;28;20036;-55
2023/12/17 03:41:32;;;;;;;18.27;6.77;;;7.60;99.90;;;;;;5033000;28;20123;-55
2023/12/17 03:43:57;;;;;;;18.50;7.43;;;7.70;99.90;;;;;;5033478;28;20040;-55
2023/12/17 03:46:25;;;;;;;16.70;7.23;;;7.70;99.90;;;;;;5032944;28;20030;-55
2023/12/17 03:48:51;;;;;;;17.33;7.47;;;7.70;99.90;;;;;;5032981;28;20069;-54
2023/12/17 03:51:17;;;;;;;16.03;7.93;;;7.70;99.90;;;;;;5032867;28;20490;-55
2023/12/17 03:53:43;;;;;;;15.50;6.90;;;7.70;99.90;;;;;;5032867;28;20124;-55
2023/12/17 03:56:13;;;;;;;15.40;7.27;;;7.80;99.90;;;;;;5032782;28;20120;-54
2023/12/17 03:58:39;;;;;;;17.93;6.73;;;7.80;99.90;;;;;;5032803;28;20035;-55
2023/12/17 04:01:06;;;;;;;17.27;7.60;;;7.80;99.90;;;;;;5032734;28;20037;-54
2023/12/17 04:03:33;;;;;;;14.87;6.40;;;7.70;99.90;;;;;;5032777;28;20068;-54
2023/12/17 04:05:59;;;;;;;16.43;7.37;;;7.70;99.90;;;;;;5032530;28;20438;-55
2023/12/17 04:08:25;;;;;;;16.07;7.20;;;7.80;99.90;;;;;;5032504;28;20044;-54
2023/12/17 04:10:51;;;;;;;17.97;7.53;;;7.80;99.90;;;;;;5032468;28;20025;-53
2023/12/17 04:13:17;;;;;;;15.27;6.90;;;7.70;99.90;;;;;;5032543;28;20061;-55
2023/12/17 04:15:43;;;;;;;16.90;7.37;;;7.70;99.90;;;;;;5032449;28;20071;-54
2023/12/17 04:18:08;;;;;;;16.10;6.83;;;7.70;99.90;;;;;;5032336;28;20121;-54
2023/12/17 04:20:35;;;;;;;13.33;5.83;;;7.70;99.90;;;;;;5032686;28;20045;-55
2023/12/17 04:23:01;;;;;;;15.70;6.47;;;7.80;99.90;;;;;;5032622;28;20109;-54
2023/12/17 04:25:26;;;;;;;17.17;7.13;;;7.80;99.90;;;;;;5032240;28;20053;-55
2023/12/17 04:27:52;;;;;;;16.00;6.57;;;7.80;99.90;;;;;;5032499;28;20033;-55
2023/12/17 04:30:18;;;;;;;12.87;6.00;;;7.70;99.90;;;;;;5032072;28;20075;-55
2023/12/17 04:32:43;;;;;;;17.93;6.70;;;7.70;99.90;;;;;;5032194;28;20026;-55
2023/12/17 04:35:09;;;;;;;18.27;6.77;;;7.70;99.90;;;;;;5032210;28;20033;-55
2023/12/17 04:37:35;;;;;;;14.70;6.07;;;7.70;99.90;;;;;;5031872;28;20077;-54
2023/12/17 04:40:01;;;;;;;16.00;6.67;;;7.60;99.90;;;;;;5031888;28;20035;-55
2023/12/17 04:42:28;;;;;;;17.87;7.13;;;7.60;99.90;;;;;;5031908;28;20029;-54
2023/12/17 04:44:54;;;;;;;15.03;6.17;;;7.60;99.90;;;;;;5032169;28;20033;-55
2023/12/17 04:47:19;;;;;;;18.10;7.10;;;7.60;99.90;;;;;;4997847;28;20034;-52
2023/12/17 04:49:46;;;;;;;14.70;6.17;;;7.60;99.90;;;;;;5031783;28;20372;-54
2023/12/17 04:52:11;;;;;;;20.90;8.20;;;7.60;99.90;;;;;;5031905;28;20037;-55
2023/12/17 04:54:37;;;;;;;15.57;5.83;;;7.80;99.90;;;;;;5031883;28;20148;-55
2023/12/17 04:57:02;;;;;;;14.70;6.60;;;7.70;99.90;;;;;;5031809;28;20080;-54
2023/12/17 04:59:28;;;;;;;17.37;6.17;;;7.70;99.90;;;;;;5031703;28;20479;-55
2023/12/17 05:01:54;;;;;;;13.37;6.30;;;7.60;99.90;;;;;;5031816;28;20020;-55
2023/12/17 05:04:19;;;;;;;14.90;5.87;;;7.60;99.90;;;;;;5031805;28;20053;-55
2023/12/17 05:06:45;;;;;;;14.97;6.57;;;7.60;99.90;;;;;;5031621;28;20474;-54
2023/12/17 05:09:11;;;;;;;15.87;6.03;;;7.70;99.90;;;;;;5031823;28;20033;-55
2023/12/17 05:11:36;;;;;;;17.80;6.63;;;7.60;99.90;;;;;;5031701;28;20057;-55
2023/12/17 05:14:02;;;;;;;15.00;6.73;;;7.60;99.90;;;;;;5031754;28;20562;-55
2023/12/17 05:16:27;;;;;;;18.10;6.73;;;7.60;99.90;;;;;;5031519;28;20037;-55
2023/12/17 05:18:53;;;;;;;17.97;6.43;;;7.60;99.90;;;;;;5031455;28;20030;-54
2023/12/17 05:21:18;;;;;;;13.90;6.67;;;7.60;99.90;;;;;;5031574;28;20083;-55
2023/12/17 05:23:44;;;;;;;14.30;6.33;;;7.60;99.90;;;;;;5031595;28;20026;-55
2023/12/17 05:26:10;;;;;;;16.10;6.57;;;7.50;99.90;;;;;;5031678;28;20083;-54
2023/12/17 05:28:37;;;;;;;14.97;5.93;;;7.50;99.90;;;;;;5031270;28;20029;-55
2023/12/17 05:31:04;;;;;;;15.27;6.50;;;7.60;99.90;;;;;;5031597;28;20403;-55
2023/12/17 05:33:29;;;;;;;16.70;5.80;;;7.60;99.90;;;;;;5031486;28;20038;-54
2023/12/17 05:35:55;;;;;;;14.57;6.00;;;7.60;99.90;;;;;;5031651;28;20486;-56
2023/12/17 05:38:21;;;;;;;14.87;6.27;;;7.60;99.90;;;;;;5031311;28;20036;-54
2023/12/17 05:40:47;;;;;;;16.00;6.47;;;7.50;99.90;;;;;;5031410;28;20030;-55
2023/12/17 05:43:13;;;;;;;15.97;7.03;;;7.40;99.90;;;;;;5031426;28;20029;-55
2023/12/17 05:45:39;;;;;;;17.37;6.83;;;7.40;99.90;;;;;;5031557;28;20049;-55
2023/12/17 05:48:07;;;;;;;16.83;6.67;;;7.40;99.90;;;;;;5031202;28;20022;-55
2023/12/17 05:50:33;;;;;;;16.53;7.70;;;7.40;99.90;;;;;;5031264;28;20048;-53
2023/12/17 05:52:58;;;;;;;14.80;5.90;;;7.30;99.90;;;;;;5031806;28;20034;-55
2023/12/17 05:55:24;;;;;;;16.07;6.63;;;7.30;99.90;;;;;;5035183;28;20553;-53
2023/12/17 05:57:50;;;;;;;14.77;6.70;;;7.30;99.90;;;;;;5034882;28;20022;-52
2023/12/17 06:00:16;;;;;;;17.57;6.73;;;7.30;99.90;;;;;;5034991;28;20118;-55
2023/12/17 06:02:42;;;;;;;17.80;6.73;;;7.30;99.90;;;;;;5034862;28;20390;-54
2023/12/17 06:05:08;;;;;;;14.83;6.10;;;7.30;99.90;;;;;;5035009;28;20031;-54
2023/12/17 06:07:34;;;;;;;13.33;6.00;;;7.30;99.90;;;;;;5034707;28;20036;-55
2023/12/17 06:09:59;;;;;;;15.73;6.53;;;7.30;99.90;;;;;;5034794;28;20029;-54
2023/12/17 06:12:25;;;;;;;14.70;6.40;;;7.20;99.90;;;;;;5034778;28;20065;-53
2023/12/17 06:14:51;;;;;;;16.53;6.30;;;7.20;99.90;;;;;;5034845;28;20118;-55
2023/12/17 06:17:16;;;;;;;13.37;5.97;;;7.20;99.90;;;;;;5016737;28;20049;-54
2023/12/17 06:19:44;;;;;;;15.93;6.63;;;7.20;99.90;;;;;;5034557;28;20029;-54
2023/12/17 06:22:11;;;;;;;13.43;6.60;;;7.20;99.90;;;;;;5034720;28;20398;-53
2023/12/17 06:24:37;;;;;;;22.10;7.73;;;7.20;99.90;;;;;;5034558;28;20116;-50
2023/12/17 06:27:03;;;;;;;17.07;7.10;;;7.30;99.90;;;;;;5034519;28;20072;-55
2023/12/17 06:29:29;;;;;;;14.97;5.93;;;7.30;99.90;;;;;;5034284;28;20057;-53
2023/12/17 06:31:54;;;;;;;17.27;6.67;;;7.30;99.90;;;;;;5034423;28;20033;-55
2023/12/17 06:34:20;;;;;;;16.03;6.73;;;7.20;99.90;;;;;;5034692;28;20025;-55
2023/12/17 06:36:46;;;;;;;17.20;6.40;;;7.10;99.90;;;;;;5034102;28;20037;-53
2023/12/17 06:39:11;;;;;;;17.47;6.67;;;7.10;99.90;;;;;;5034237;28;20021;-54
2023/12/17 06:41:46;;;;;;;17.27;6.33;;;7.10;99.90;;;;;;5034178;28;20593;-54
2023/12/17 06:44:12;;;;;;;16.50;6.17;;;7.10;99.90;;;;;;5034334;28;20064;-52
2023/12/17 06:46:37;;;;;;;17.93;6.50;;;7.10;99.90;;;;;;5033987;28;20061;-50
2023/12/17 06:49:03;;;;;;;21.97;7.50;;;7.10;99.90;;;;;;5034331;28;20449;-54
2023/12/17 06:51:28;;;;;;;17.60;6.10;;;7.10;99.90;;;;;;5016186;28;20063;-53
2023/12/17 06:53:54;;;;;;;16.67;6.20;;;7.10;99.90;;;;;;5034119;28;20033;-55
2023/12/17 06:56:19;;;;;;;15.23;6.33;;;7.10;99.90;;;;;;5033815;28;20478;-54
2023/12/17 06:58:45;;;;;;;18.03;6.60;;;7.10;99.90;;;;;;5033903;28;20075;-55
2023/12/17 07:01:11;;;;;;;13.13;6.10;;;7.20;99.90;;;;;;5033789;28;20030;-53
2023/12/17 07:03:37;;;;;;;19.03;7.23;;;7.10;99.90;;;;;;5033868;28;20021;-55
2023/12/17 07:06:03;;;;;;;14.00;5.90;;;7.10;99.90;;;;;;5032528;28;20437;-55
2023/12/17 07:08:29;;;;;;;13.70;5.60;;;7.20;99.90;;;;;;5033508;28;20037;-53
2023/12/17 07:10:54;;;;;;;15.33;5.57;;;7.10;99.90;;;;;;5033669;28;20466;-52
2023/12/17 07:13:20;;;;;;;20.70;7.17;;;7.10;99.90;;;;;;5033655;28;20033;-55
2023/12/17 07:15:46;;;;;;;24.70;10.43;;;7.10;99.90;;;;;;5033537;28;20030;-55
2023/12/17 07:18:11;;;;;;;16.07;6.97;;;7.10;99.90;;;;;;5033434;28;20493;-54
2023/12/17 07:20:37;;;;;;;14.67;5.73;;;7.10;99.90;;;;;;5033457;28;20068;-54
2023/12/17 07:23:03;;;;;;;13.93;5.70;;;7.10;99.90;;;;;;5033644;28;20024;-54
2023/12/17 07:25:28;;;;;;;14.60;5.83;;;7.10;99.90;;;;;;5033460;28;20418;-56
2023/12/17 07:27:57;;;;;;;14.27;5.77;;;7.10;99.90;;;;;;5033221;28;20108;-55
2023/12/17 07:30:22;;;;;;;14.07;5.73;;;7.00;99.90;;;;;;5033168;28;20029;-56
2023/12/17 07:32:48;;;;;;;14.47;5.87;;;7.10;99.90;;;;;;5033393;28;20998;-55
2023/12/17 07:35:14;;;;;;;17.17;5.57;;;7.10;99.90;;;;;;5033480;28;20033;-54
2023/12/17 07:37:40;;;;;;;13.93;5.37;;;7.00;99.90;;;;;;5033207;28;20077;-55
2023/12/17 07:40:06;;;;;;;14.10;5.23;;;7.00;99.90;;;;;;5033003;28;20025;-53
2023/12/17 07:42:32;;;;;;;12.90;5.87;;;7.00;99.90;;;;;;5033083;28;20067;-53
2023/12/17 07:44:58;;;;;;;12.67;5.13;;;7.00;99.90;;;;;;5033107;28;20033;-54
2023/12/17 07:47:23;;;;;;;12.30;4.73;;;6.90;99.90;;;;;;5032909;28;20553;-54
2023/12/17 07:49:49;;;;;;;12.77;4.70;;;6.90;99.90;;;;;;5032865;28;20037;-51
2023/12/17 07:52:15;;;;;;;12.27;5.33;;;6.90;99.90;;;;;;5033063;28;20033;-56
2023/12/17 07:54:40;;;;;;;11.40;4.30;;;6.90;99.90;;;;;;5032890;28;20120;-52
2023/12/17 07:57:08;;;;;;;15.17;4.90;;;6.90;99.90;;;;;;5032606;28;20048;-53
2023/12/17 07:59:33;;;;;;;14.97;5.07;;;6.90;99.90;;;;;;5033140;28;20081;-55
2023/12/17 08:01:59;;;;;;;18.20;5.47;;;6.90;99.90;;;;;;5032898;28;20038;-51
2023/12/17 08:04:25;;;;;;;11.97;4.63;;;6.80;99.90;;;;;;5032746;28;20026;-54
2023/12/17 08:06:50;;;;;;;11.67;4.40;;;6.80;99.90;;;;;;5032558;28;20394;-51
2023/12/17 08:09:16;;;;;;;11.37;4.50;;;6.80;99.90;;;;;;5014984;28;20055;-54
2023/12/17 08:11:43;;;;;;;12.77;4.63;;;6.90;99.90;;;;;;5032563;28;20037;-55
2023/12/17 08:14:09;;;;;;;11.67;4.10;;;6.80;99.90;;;;;;5032472;28;20083;-56
2023/12/17 08:16:35;;;;;;;11.10;4.43;;;6.80;99.90;;;;;;5031993;28;20034;-52
2023/12/17 08:19:01;;;;;;;11.23;4.47;;;6.80;99.90;;;;;;5032316;28;20041;-55
2023/12/17 08:21:26;;;;;;;10.90;4.10;;;6.80;99.90;;;;;;5032374;28;20060;-54
2023/12/17 08:23:52;;;;;;;13.83;4.80;;;6.80;99.90;;;;;;5032362;28;20030;-55
2023/12/17 08:26:17;;;;;;;11.80;4.60;;;6.80;99.90;;;;;;5014591;28;20033;-54
2023/12/17 08:28:43;;;;;;;11.47;4.17;;;6.80;99.90;;;;;;5032188;28;20103;-52
2023/12/17 08:31:09;;;;;;;12.00;4.17;;;6.80;99.90;;;;;;5032274;28;20032;-55
2023/12/17 08:33:38;;;;;;;11.47;4.27;;;6.80;99.90;;;;;;5032158;28;20030;-54
2023/12/17 08:36:04;;;;;;;12.20;4.70;;;6.90;99.90;;;;;;5032197;28;20363;-55
2023/12/17 08:38:30;;;;;;;16.77;4.63;;;6.90;99.90;;;;;;5032014;28;20463;-53
2023/12/17 08:40:56;;;;;;;13.40;4.97;;;6.90;99.90;;;;;;5032014;28;20041;-54
2023/12/17 08:43:22;;;;;;;12.83;4.27;;;6.80;99.90;;;;;;5032059;28;20087;-54
2023/12/17 08:45:48;;;;;;;13.87;4.10;;;6.90;99.90;;;;;;5032208;28;20109;-53
2023/12/17 08:48:13;;;;;;;10.73;4.17;;;6.90;99.90;;;;;;5031842;28;20087;-52
2023/12/17 08:50:39;;;;;;;10.97;4.50;;;6.90;99.90;;;;;;5014182;28;20030;-52
2023/12/17 08:53:05;;;;;;;10.90;4.17;;;6.80;99.90;;;;;;5031993;28;20025;-55
2023/12/17 08:55:30;;;;;;;13.90;5.77;;;6.80;99.90;;;;;;5031914;28;20152;-55
2023/12/17 08:57:56;;;;;;;14.07;5.23;;;6.70;99.90;;;;;;5031555;28;20398;-54
2023/12/17 09:00:22;;;;;;;19.63;6.90;;;6.80;99.90;;;;;;5031864;28;20104;-53
2023/12/17 09:02:47;;;;;;;15.37;6.10;;;6.80;99.90;;;;;;5032062;28;20036;-54
2023/12/17 09:05:13;;;;;;;15.10;6.13;;;6.90;99.90;;;;;;5031772;28;20034;-51
2023/12/17 09:07:39;;;;;;;14.47;5.50;;;6.90;99.90;;;;;;5031680;28;20077;-51
2023/12/17 09:10:05;;;;;;;14.57;4.77;;;7.00;99.90;;;;;;5031765;28;20425;-51
2023/12/17 09:12:31;;;;;;;11.13;4.87;;;7.00;99.90;;;;;;5031733;28;20375;-54
2023/12/17 09:14:56;;;;;;;12.20;4.83;;;7.00;99.90;;;;;;5031723;28;20127;-55
2023/12/17 09:17:22;;;;;;;13.40;5.07;;;7.10;99.90;;;;;;5031532;28;20033;-51
2023/12/17 09:19:48;;;;;;;14.77;6.27;;;7.10;99.90;;;;;;5031657;28;20025;-53
2023/12/17 09:22:13;;;;;;;12.43;5.07;;;7.10;99.90;;;;;;5031653;28;20389;-50
2023/12/17 09:24:40;;;;;;;11.63;5.00;;;7.10;99.90;;;;;;5031628;28;20033;-54
2023/12/17 09:27:05;;;;;;;14.00;5.60;;;7.10;99.90;;;;;;5031487;28;20032;-53
2023/12/17 09:29:32;;;;;;;12.53;4.87;;;7.10;99.90;;;;;;5034579;28;20026;-53
2023/12/17 09:31:58;;;;;;;12.87;5.40;;;7.10;99.90;;;;;;5035549;28;20037;-53
2023/12/17 09:34:23;;;;;;;14.20;4.90;;;7.20;99.90;;;;;;5035654;28;20091;-55
2023/12/17 09:36:49;;;;;;;13.53;5.40;;;7.10;99.90;;;;;;5035201;28;20037;-53
2023/12/17 09:39:14;;;;;;;18.67;6.10;;;7.10;99.90;;;;;;5017550;28;20029;-55
2023/12/17 09:41:43;;;;;;;15.40;5.53;;;7.10;99.90;;;;;;5035323;28;20501;-53
2023/12/17 09:44:09;;;;;;;16.00;6.17;;;7.10;99.90;;;;;;5035492;28;20026;-52
2023/12/17 09:46:35;;;;;;;13.30;5.30;;;7.10;99.90;;;;;;5035116;28;20026;-55
2023/12/17 09:49:01;;;;;;;16.50;5.93;;;7.10;99.90;;;;;;5035176;28;20025;-53
2023/12/17 09:51:28;;;;;;;15.70;5.97;;;7.30;99.90;;;;;;5035280;28;20043;-54
2023/12/17 09:53:56;;;;;;;15.60;6.00;;;7.30;99.90;;;;;;5035116;28;20033;-53
2023/12/17 09:56:21;;;;;;;13.77;5.03;;;7.40;99.90;;;;;;5034947;28;20029;-52
2023/12/17 09:58:47;;;;;;;12.83;5.20;;;7.30;99.90;;;;;;5034916;28;20029;-52
2023/12/17 10:01:13;;;;;;;12.50;6.17;;;7.30;99.90;;;;;;5034936;28;20021;-50
2023/12/17 10:03:38;;;;;;;15.60;5.43;;;7.40;99.90;;;;;;5035118;28;20044;-53
2023/12/17 10:06:04;;;;;;;16.53;6.13;;;7.40;99.90;;;;;;5034974;28;20025;-52
2023/12/17 10:08:31;;;;;;;13.23;5.60;;;7.40;99.90;;;;;;5034747;28;20087;-52
2023/12/17 10:10:56;;;;;;;13.27;5.10;;;7.40;99.90;;;;;;5034690;28;20040;-52
2023/12/17 10:13:23;;;;;;;13.27;5.13;;;7.40;99.90;;;;;;5034895;28;20112;-51
2023/12/17 10:15:50;;;;;;;13.50;5.50;;;7.30;99.90;;;;;;5034679;28;20029;-54
2023/12/17 10:18:16;;;;;;;15.37;5.17;;;7.30;99.90;;;;;;5016953;28;20092;-52
2023/12/17 10:20:44;;;;;;;14.40;5.20;;;7.30;99.90;;;;;;5034641;28;20079;-54
2023/12/17 10:23:09;;;;;;;13.37;4.57;;;7.30;99.90;;;;;;5034626;28;20037;-54
2023/12/17 10:25:35;;;;;;;13.37;5.50;;;7.20;99.90;;;;;;5034649;28;20524;-54
2023/12/17 10:28:01;;;;;;;12.97;5.70;;;7.20;99.90;;;;;;5034353;28;20096;-54
2023/12/17 10:30:29;;;;;;;15.90;5.97;;;7.10;99.90;;;;;;5034275;28;20029;-53
2023/12/17 10:32:56;;;;;;;12.63;4.83;;;7.10;99.90;;;;;;5016370;28;20239;-54
2023/12/17 10:35:23;;;;;;;12.67;5.67;;;7.10;99.90;;;;;;5034259;28;20045;-51
2023/12/17 10:38:00;;;;;;;12.83;5.07;;;7.10;99.90;;;;;;5034090;28;20041;-54
2023/12/17 10:40:28;;;;;;;11.53;5.50;;;7.10;99.90;;;;;;5033800;28;20452;-52
2023/12/17 10:42:56;;;;;;;13.10;4.83;;;7.10;99.90;;;;;;5034330;28;20482;-51
2023/12/17 10:45:22;;;;;;;15.17;6.20;;;7.00;99.90;;;;;;5034301;28;20410;-53
2023/12/17 10:47:52;;;;;;;11.60;4.73;;;6.90;99.90;;;;;;5034180;28;20038;-52
2023/12/17 10:50:19;;;;;;;11.90;5.07;;;6.90;99.90;;;;;;5034057;28;20514;-55
2023/12/17 10:52:46;;;;;;;14.20;5.83;;;6.90;99.90;;;;;;5034169;28;20041;-52
2023/12/17 10:55:12;;;;;;;16.83;6.47;;;7.00;99.90;;;;;;5034145;28;20518;-55
2023/12/17 10:57:39;;;;;;;19.87;6.13;;;6.90;99.90;;;;;;5033705;28;20060;-55
2023/12/17 11:00:07;;;;;;;15.17;6.33;;;6.80;99.90;;;;;;5033844;28;20045;-54
2023/12/17 11:02:33;;;;;;;15.38;5.90;;;6.70;99.90;;;;;;5034013;28;20026;-55
2023/12/17 11:04:59;;;;;;;19.83;6.67;;;6.70;99.90;;;;;;5033774;28;20103;-52
2023/12/17 11:07:26;;;;;;;17.87;7.23;;;6.70;99.90;;;;;;5033604;28;20485;-55
2023/12/17 11:09:52;;;;;;;19.60;7.03;;;6.70;99.90;;;;;;5033668;28;20397;-52
2023/12/17 11:12:21;;;;;;;15.77;7.23;;;6.70;99.90;;;;;;5033839;28;20036;-54
2023/12/17 11:14:46;;;;;;;22.48;7.47;;;6.70;99.90;;;;;;5033825;28;20409;-51
2023/12/17 11:17:14;;;;;;;20.50;7.30;;;6.60;99.90;;;;;;5033443;28;20025;-52
2023/12/17 11:20:02;;;;;;;18.40;7.03;;;6.60;99.90;;;;;;5033496;28;20108;-53
2023/12/17 11:22:28;;;;;;;17.57;6.90;;;6.60;99.90;;;;;;5033508;28;20038;-50
2023/12/17 11:24:56;;;;;;;18.97;7.37;;;6.60;99.90;;;;;;5033494;28;20041;-53
2023/12/17 11:27:22;;;;;;;17.57;7.57;;;6.60;99.90;;;;;;5033319;28;20029;-51
2023/12/17 11:29:55;;;;;;;16.33;6.27;;;6.60;99.90;;;;;;5033301;28;20037;-55
2023/12/17 11:32:22;;;;;;;20.07;7.20;;;6.70;99.90;;;;;;5033274;28;20474;-53
2023/12/17 11:34:49;;;;;;;15.60;6.77;;;6.60;99.90;;;;;;5033275;28;20103;-54
2023/12/17 11:37:19;;;;;;;16.37;7.03;;;6.60;99.90;;;;;;5033076;28;20034;-55
2023/12/17 11:39:46;;;;;;;13.33;5.67;;;6.60;99.90;;;;;;5032968;28;20152;-51
2023/12/17 11:42:14;;;;;;;19.10;7.40;;;6.70;99.90;;;;;;5032882;28;20037;-53
2023/12/17 11:44:50;;;;;;;15.27;6.70;;;6.70;99.90;;;;;;5032947;28;20038;-52
2023/12/17 11:47:17;;;;;;;13.07;5.50;;;6.80;99.90;;;;;;5033244;28;20041;-53
2023/12/17 11:49:43;;;;;;;13.13;5.40;;;6.90;99.90;;;;;;5032886;28;20036;-55
2023/12/17 11:52:11;;;;;;;14.63;6.20;;;6.90;99.90;;;;;;5032177;28;20494;-55
2023/12/17 11:54:37;;;;;;;13.40;5.53;;;6.80;99.90;;;;;;5032910;28;20048;-53
2023/12/17 11:57:03;;;;;;;16.53;6.47;;;6.80;99.90;;;;;;5014954;28;20310;-51
2023/12/17 11:59:34;;;;;;;17.10;6.63;;;6.80;99.90;;;;;;5032704;28;20021;-52
2023/12/17 12:02:01;;;;;;;13.90;6.37;;;6.90;99.90;;;;;;5032686;28;20036;-51
2023/12/17 12:04:27;;;;;;;13.43;5.60;;;6.90;99.90;;;;;;5032884;28;20390;-52
2023/12/17 12:06:53;;;;;;;12.43;5.40;;;6.90;99.90;;;;;;5032614;28;20029;-55
2023/12/17 12:09:19;;;;;;;12.07;5.27;;;7.00;99.90;;;;;;5032538;28;20390;-51
2023/12/17 12:11:45;;;;;;;11.13;5.33;;;6.90;99.90;;;;;;5032535;28;20041;-53
2023/12/17 12:14:11;;;;;;;12.27;5.00;;;6.90;99.90;;;;;;5032533;28;20037;-51
2023/12/17 12:16:39;;;;;;;11.93;5.03;;;6.90;99.90;;;;;;5014771;28;20033;-54
2023/12/17 12:19:05;;;;;;;11.40;4.67;;;7.00;99.90;;;;;;5032355;28;20044;-53
2023/12/17 12:21:31;;;;;;;12.10;5.07;;;7.00;99.90;;;;;;5032381;28;20513;-55
2023/12/17 12:23:57;;;;;;;14.17;6.30;;;7.00;99.90;;;;;;5032423;28;20025;-55
2023/12/17 12:26:24;;;;;;;16.00;6.53;;;7.00;99.90;;;;;;5032168;28;20414;-55
2023/12/17 12:29:01;;;;;;;14.23;5.93;;;7.00;99.90;;;;;;5032212;28;20029;-54
2023/12/17 12:31:29;;;;;;;13.97;6.23;;;7.00;99.90;;;;;;5032258;28;20036;-55
2023/12/17 12:33:59;;;;;;;11.10;5.37;;;7.10;99.90;;;;;;5032257;28;20079;-55
2023/12/17 12:36:46;;;;;;;10.03;4.60;;;7.10;99.90;;;;;;5032016;28;20033;-53
2023/12/17 12:39:13;;;;;;;13.73;5.83;;;7.20;99.90;;;;;;5031996;28;20068;-52
2023/12/17 12:41:46;;;;;;;10.50;5.47;;;7.20;99.90;;;;;;5032089;28;20041;-54